sensor_id;sensor_type;location;lat;lon;timestamp;temperature;humidity
40654;DHT22;26344;45.532;9.232;2023-05-07T00:00:36;24.50;95.80
40654;DHT22;26344;45.532;9.232;2023-05-07T00:03:02;24.50;95.90
40654;DHT22;26344;45.532;9.232;2023-05-07T00:05:28;24.40;95.90
40654;DHT22;26344;45.532;9.232;2023-05-07T00:07:53;24.40;96.00
40654;DHT22;26344;45.532;9.232;2023-05-07T00:10:19;24.40;96.10
40654;DHT22;26344;45.532;9.232;2023-05-07T00:12:44;24.40;96.20
40654;DHT22;26344;45.532;9.232;2023-05-07T00:15:10;24.40;96.10
40654;DHT22;26344;45.532;9.232;2023-05-07T00:17:35;24.50;96.10
40654;DHT22;26344;45.532;9.232;2023-05-07T00:20:02;24.50;96.20
40654;DHT22;26344;45.532;9.232;2023-05-07T00:22:28;24.50;96.20
40654;DHT22;26344;45.532;9.232;2023-05-07T00:24:55;24.50;96.20
40654;DHT22;26344;45.532;9.232;2023-05-07T00:27:21;24.50;96.20
40654;DHT22;26344;45.532;9.232;2023-05-07T00:29:46;24.40;96.20
40654;DHT22;26344;45.532;9.232;2023-05-07T00:32:12;24.40;96.40
40654;DHT22;26344;45.532;9.232;2023-05-07T00:34:37;24.40;96.40
40654;DHT22;26344;45.532;9.232;2023-05-07T00:37:04;24.40;96.50
40654;DHT22;26344;45.532;9.232;2023-05-07T00:39:30;24.50;96.50
40654;DHT22;26344;45.532;9.232;2023-05-07T00:41:55;24.40;96.60
40654;DHT22;26344;45.532;9.232;2023-05-07T00:44:21;24.40;96.50
40654;DHT22;26344;45.532;9.232;2023-05-07T00:46:46;24.40;96.40
40654;DHT22;26344;45.532;9.232;2023-05-07T00:49:15;24.40;96.50
40654;DHT22;26344;45.532;9.232;2023-05-07T00:51:41;24.40;96.50
40654;DHT22;26344;45.532;9.232;2023-05-07T00:54:06;24.40;96.50
40654;DHT22;26344;45.532;9.232;2023-05-07T00:56:32;24.40;96.70
40654;DHT22;26344;45.532;9.232;2023-05-07T00:58:58;24.40;96.50
40654;DHT22;26344;45.532;9.232;2023-05-07T01:01:24;24.40;96.10
40654;DHT22;26344;45.532;9.232;2023-05-07T01:03:49;24.30;95.90
40654;DHT22;26344;45.532;9.232;2023-05-07T01:06:15;24.20;95.60
40654;DHT22;26344;45.532;9.232;2023-05-07T01:08:42;24.20;95.30
40654;DHT22;26344;45.532;9.232;2023-05-07T01:11:07;24.10;95.20
40654;DHT22;26344;45.532;9.232;2023-05-07T01:13:34;24.10;95.10
40654;DHT22;26344;45.532;9.232;2023-05-07T01:16:00;24.10;95.00
40654;DHT22;26344;45.532;9.232;2023-05-07T01:18:25;24.10;94.90
40654;DHT22;26344;45.532;9.232;2023-05-07T01:20:52;24.00;95.00
40654;DHT22;26344;45.532;9.232;2023-05-07T01:23:18;24.00;95.00
40654;DHT22;26344;45.532;9.232;2023-05-07T01:25:43;23.90;95.00
40654;DHT22;26344;45.532;9.232;2023-05-07T01:28:15;23.90;95.00
40654;DHT22;26344;45.532;9.232;2023-05-07T01:30:41;23.90;95.00
40654;DHT22;26344;45.532;9.232;2023-05-07T01:33:10;23.80;95.10
40654;DHT22;26344;45.532;9.232;2023-05-07T01:35:40;23.80;95.10
40654;DHT22;26344;45.532;9.232;2023-05-07T01:38:07;23.80;95.20
40654;DHT22;26344;45.532;9.232;2023-05-07T01:40:33;23.70;95.20
40654;DHT22;26344;45.532;9.232;2023-05-07T01:42:59;23.70;95.10
40654;DHT22;26344;45.532;9.232;2023-05-07T01:45:25;23.70;95.10
40654;DHT22;26344;45.532;9.232;2023-05-07T01:47:51;23.70;95.00
40654;DHT22;26344;45.532;9.232;2023-05-07T01:50:17;23.60;95.00
40654;DHT22;26344;45.532;9.232;2023-05-07T01:52:43;23.60;94.90
40654;DHT22;26344;45.532;9.232;2023-05-07T01:55:09;23.60;94.90
40654;DHT22;26344;45.532;9.232;2023-05-07T01:57:35;23.60;94.90
40654;DHT22;26344;45.532;9.232;2023-05-07T02:00:00;23.60;94.90
40654;DHT22;26344;45.532;9.232;2023-05-07T02:02:26;23.60;94.90
40654;DHT22;26344;45.532;9.232;2023-05-07T02:04:51;23.60;94.80
40654;DHT22;26344;45.532;9.232;2023-05-07T02:07:17;23.60;94.80
40654;DHT22;26344;45.532;9.232;2023-05-07T02:09:42;23.50;94.70
40654;DHT22;26344;45.532;9.232;2023-05-07T02:12:08;23.50;94.70
40654;DHT22;26344;45.532;9.232;2023-05-07T02:14:33;23.50;94.80
40654;DHT22;26344;45.532;9.232;2023-05-07T02:16:59;23.40;95.10
40654;DHT22;26344;45.532;9.232;2023-05-07T02:19:24;23.40;95.30
40654;DHT22;26344;45.532;9.232;2023-05-07T02:21:50;23.30;95.60
40654;DHT22;26344;45.532;9.232;2023-05-07T02:24:16;23.20;95.70
40654;DHT22;26344;45.532;9.232;2023-05-07T02:26:41;23.20;95.90
40654;DHT22;26344;45.532;9.232;2023-05-07T02:29:07;23.20;96.00
40654;DHT22;26344;45.532;9.232;2023-05-07T02:31:32;23.20;96.00
40654;DHT22;26344;45.532;9.232;2023-05-07T02:33:59;23.10;96.00
40654;DHT22;26344;45.532;9.232;2023-05-07T02:36:24;23.80;96.20
40654;DHT22;26344;45.532;9.232;2023-05-07T02:38:50;23.10;96.30
40654;DHT22;26344;45.532;9.232;2023-05-07T02:41:15;23.00;96.90
40654;DHT22;26344;45.532;9.232;2023-05-07T02:43:41;23.00;97.30
40654;DHT22;26344;45.532;9.232;2023-05-07T02:46:07;22.90;97.60
40654;DHT22;26344;45.532;9.232;2023-05-07T02:48:33;22.90;97.90
40654;DHT22;26344;45.532;9.232;2023-05-07T02:50:59;22.90;97.90
40654;DHT22;26344;45.532;9.232;2023-05-07T02:53:24;22.80;98.00
40654;DHT22;26344;45.532;9.232;2023-05-07T02:55:53;22.70;98.10
40654;DHT22;26344;45.532;9.232;2023-05-07T02:58:18;22.80;98.20
40654;DHT22;26344;45.532;9.232;2023-05-07T03:00:44;22.70;98.40
40654;DHT22;26344;45.532;9.232;2023-05-07T03:03:09;22.70;98.50
40654;DHT22;26344;45.532;9.232;2023-05-07T03:05:36;22.60;98.50
40654;DHT22;26344;45.532;9.232;2023-05-07T03:08:01;22.60;98.70
40654;DHT22;26344;45.532;9.232;2023-05-07T03:10:27;22.60;98.90
40654;DHT22;26344;45.532;9.232;2023-05-07T03:12:52;22.60;99.00
40654;DHT22;26344;45.532;9.232;2023-05-07T03:15:17;22.50;99.20
40654;DHT22;26344;45.532;9.232;2023-05-07T03:17:43;22.50;99.30
40654;DHT22;26344;45.532;9.232;2023-05-07T03:20:09;22.50;99.50
40654;DHT22;26344;45.532;9.232;2023-05-07T03:22:34;22.50;99.80
40654;DHT22;26344;45.532;9.232;2023-05-07T03:25:00;22.40;99.90
40654;DHT22;26344;45.532;9.232;2023-05-07T03:27:25;22.30;99.90
40654;DHT22;26344;45.532;9.232;2023-05-07T03:29:51;22.30;99.90
40654;DHT22;26344;45.532;9.232;2023-05-07T03:32:16;22.30;99.90
40654;DHT22;26344;45.532;9.232;2023-05-07T03:34:42;22.30;99.90
40654;DHT22;26344;45.532;9.232;2023-05-07T03:37:07;22.30;99.90
40654;DHT22;26344;45.532;9.232;2023-05-07T03:39:33;22.30;99.90
40654;DHT22;26344;45.532;9.232;2023-05-07T03:41:58;22.30;99.90
40654;DHT22;26344;45.532;9.232;2023-05-07T03:44:24;22.20;99.90
40654;DHT22;26344;45.532;9.232;2023-05-07T03:46:49;22.20;99.90
40654;DHT22;26344;45.532;9.232;2023-05-07T03:49:14;22.20;99.90
40654;DHT22;26344;45.532;9.232;2023-05-07T03:51:40;22.20;99.90
40654;DHT22;26344;45.532;9.232;2023-05-07T03:54:05;22.10;99.90
40654;DHT22;26344;45.532;9.232;2023-05-07T03:56:31;22.10;99.90
40654;DHT22;26344;45.532;9.232;2023-05-07T03:58:56;22.10;99.90
40654;DHT22;26344;45.532;9.232;2023-05-07T04:01:22;22.10;99.90
40654;DHT22;26344;45.532;9.232;2023-05-07T04:03:47;22.10;99.90
40654;DHT22;26344;45.532;9.232;2023-05-07T04:06:13;22.10;99.90
40654;DHT22;26344;45.532;9.232;2023-05-07T04:08:38;22.00;99.90
40654;DHT22;26344;45.532;9.232;2023-05-07T04:11:04;22.00;99.90
40654;DHT22;26344;45.532;9.232;2023-05-07T04:13:29;22.00;99.90
40654;DHT22;26344;45.532;9.232;2023-05-07T04:15:55;22.30;99.90
40654;DHT22;26344;45.532;9.232;2023-05-07T04:18:21;21.80;99.90
40654;DHT22;26344;45.532;9.232;2023-05-07T04:20:49;21.80;99.90
40654;DHT22;26344;45.532;9.232;2023-05-07T04:23:15;21.70;99.90
40654;DHT22;26344;45.532;9.232;2023-05-07T04:25:41;21.60;99.90
40654;DHT22;26344;45.532;9.232;2023-05-07T04:28:06;21.60;99.90
40654;DHT22;26344;45.532;9.232;2023-05-07T04:30:32;21.60;99.90
40654;DHT22;26344;45.532;9.232;2023-05-07T04:32:57;21.50;99.90
40654;DHT22;26344;45.532;9.232;2023-05-07T04:35:23;21.40;99.90
40654;DHT22;26344;45.532;9.232;2023-05-07T04:37:48;21.50;99.90
40654;DHT22;26344;45.532;9.232;2023-05-07T04:40:14;21.40;99.90
40654;DHT22;26344;45.532;9.232;2023-05-07T04:42:39;21.40;99.90
40654;DHT22;26344;45.532;9.232;2023-05-07T04:45:05;21.40;99.90
40654;DHT22;26344;45.532;9.232;2023-05-07T04:47:30;21.30;99.90
40654;DHT22;26344;45.532;9.232;2023-05-07T04:49:57;21.30;99.90
40654;DHT22;26344;45.532;9.232;2023-05-07T04:52:22;21.10;99.90
40654;DHT22;26344;45.532;9.232;2023-05-07T04:54:48;21.10;99.90
40654;DHT22;26344;45.532;9.232;2023-05-07T04:57:13;21.20;99.90
40654;DHT22;26344;45.532;9.232;2023-05-07T04:59:38;21.20;99.90
40654;DHT22;26344;45.532;9.232;2023-05-07T05:02:04;21.10;99.90
40654;DHT22;26344;45.532;9.232;2023-05-07T05:04:30;21.20;99.90
40654;DHT22;26344;45.532;9.232;2023-05-07T05:06:55;21.20;99.90
40654;DHT22;26344;45.532;9.232;2023-05-07T05:09:21;21.20;99.90
40654;DHT22;26344;45.532;9.232;2023-05-07T05:11:46;21.20;99.90
40654;DHT22;26344;45.532;9.232;2023-05-07T05:14:12;21.20;99.90
40654;DHT22;26344;45.532;9.232;2023-05-07T05:16:37;21.20;99.90
40654;DHT22;26344;45.532;9.232;2023-05-07T05:19:03;21.20;99.90
40654;DHT22;26344;45.532;9.232;2023-05-07T05:21:28;21.20;99.90
40654;DHT22;26344;45.532;9.232;2023-05-07T05:23:54;21.20;99.90
40654;DHT22;26344;45.532;9.232;2023-05-07T05:26:19;21.20;99.90
40654;DHT22;26344;45.532;9.232;2023-05-07T05:28:46;21.20;99.90
40654;DHT22;26344;45.532;9.232;2023-05-07T05:31:12;21.30;99.90
40654;DHT22;26344;45.532;9.232;2023-05-07T05:33:37;21.30;99.90
40654;DHT22;26344;45.532;9.232;2023-05-07T05:36:03;21.30;99.90
40654;DHT22;26344;45.532;9.232;2023-05-07T05:38:28;21.30;99.90
40654;DHT22;26344;45.532;9.232;2023-05-07T05:40:54;21.30;99.90
40654;DHT22;26344;45.532;9.232;2023-05-07T05:43:20;21.40;99.90
40654;DHT22;26344;45.532;9.232;2023-05-07T05:45:45;21.40;99.90
40654;DHT22;26344;45.532;9.232;2023-05-07T05:48:11;21.30;99.90
40654;DHT22;26344;45.532;9.232;2023-05-07T05:50:36;21.40;99.90
40654;DHT22;26344;45.532;9.232;2023-05-07T05:53:02;21.30;99.90
40654;DHT22;26344;45.532;9.232;2023-05-07T05:55:27;21.30;99.90
40654;DHT22;26344;45.532;9.232;2023-05-07T05:57:53;21.30;99.90
40654;DHT22;26344;45.532;9.232;2023-05-07T06:00:18;21.40;99.90
40654;DHT22;26344;45.532;9.232;2023-05-07T06:02:47;21.30;99.90
40654;DHT22;26344;45.532;9.232;2023-05-07T06:05:13;21.40;99.90
40654;DHT22;26344;45.532;9.232;2023-05-07T06:07:38;21.50;99.90
40654;DHT22;26344;45.532;9.232;2023-05-07T06:10:04;21.50;99.90
40654;DHT22;26344;45.532;9.232;2023-05-07T06:12:29;21.50;99.90
40654;DHT22;26344;45.532;9.232;2023-05-07T06:14:55;21.60;99.90
40654;DHT22;26344;45.532;9.232;2023-05-07T06:17:20;21.60;99.90
40654;DHT22;26344;45.532;9.232;2023-05-07T06:19:46;21.80;99.90
40654;DHT22;26344;45.532;9.232;2023-05-07T06:22:12;21.80;99.90
40654;DHT22;26344;45.532;9.232;2023-05-07T06:24:37;21.80;99.90
40654;DHT22;26344;45.532;9.232;2023-05-07T06:27:02;21.80;99.90
40654;DHT22;26344;45.532;9.232;2023-05-07T06:29:28;21.80;99.90
40654;DHT22;26344;45.532;9.232;2023-05-07T06:31:55;21.80;99.90
40654;DHT22;26344;45.532;9.232;2023-05-07T06:34:21;21.80;99.90
40654;DHT22;26344;45.532;9.232;2023-05-07T06:36:46;21.90;99.90
40654;DHT22;26344;45.532;9.232;2023-05-07T06:39:11;22.00;99.90
40654;DHT22;26344;45.532;9.232;2023-05-07T06:41:37;21.80;99.90
40654;DHT22;26344;45.532;9.232;2023-05-07T06:44:03;21.80;99.90
40654;DHT22;26344;45.532;9.232;2023-05-07T06:46:28;21.80;99.90
40654;DHT22;26344;45.532;9.232;2023-05-07T06:48:54;21.80;99.90
40654;DHT22;26344;45.532;9.232;2023-05-07T06:51:19;21.80;99.90
40654;DHT22;26344;45.532;9.232;2023-05-07T06:53:45;21.90;99.90
40654;DHT22;26344;45.532;9.232;2023-05-07T06:56:10;23.00;99.90
40654;DHT22;26344;45.532;9.232;2023-05-07T06:58:36;22.00;99.90
40654;DHT22;26344;45.532;9.232;2023-05-07T07:01:02;22.00;99.90
40654;DHT22;26344;45.532;9.232;2023-05-07T07:03:27;21.90;99.90
40654;DHT22;26344;45.532;9.232;2023-05-07T07:05:53;21.90;99.90
40654;DHT22;26344;45.532;9.232;2023-05-07T07:08:18;21.90;99.90
40654;DHT22;26344;45.532;9.232;2023-05-07T07:10:46;21.90;99.90
40654;DHT22;26344;45.532;9.232;2023-05-07T07:13:12;22.00;99.90
40654;DHT22;26344;45.532;9.232;2023-05-07T07:15:37;22.00;99.90
40654;DHT22;26344;45.532;9.232;2023-05-07T07:18:03;22.10;99.90
40654;DHT22;26344;45.532;9.232;2023-05-07T07:20:29;22.20;99.90
40654;DHT22;26344;45.532;9.232;2023-05-07T07:22:55;22.20;99.90
40654;DHT22;26344;45.532;9.232;2023-05-07T07:25:20;22.20;99.90
40654;DHT22;26344;45.532;9.232;2023-05-07T07:27:45;22.20;99.90
40654;DHT22;26344;45.532;9.232;2023-05-07T07:30:11;22.30;99.90
40654;DHT22;26344;45.532;9.232;2023-05-07T07:32:37;22.30;99.90
40654;DHT22;26344;45.532;9.232;2023-05-07T07:35:02;22.40;99.90
40654;DHT22;26344;45.532;9.232;2023-05-07T07:37:28;22.30;99.90
40654;DHT22;26344;45.532;9.232;2023-05-07T07:39:54;22.40;99.90
40654;DHT22;26344;45.532;9.232;2023-05-07T07:42:20;22.40;99.90
40654;DHT22;26344;45.532;9.232;2023-05-07T07:44:45;22.40;99.90
40654;DHT22;26344;45.532;9.232;2023-05-07T07:47:11;22.50;99.90
40654;DHT22;26344;45.532;9.232;2023-05-07T07:49:36;22.60;99.90
40654;DHT22;26344;45.532;9.232;2023-05-07T07:52:02;22.70;99.90
40654;DHT22;26344;45.532;9.232;2023-05-07T07:54:28;22.80;99.90
40654;DHT22;26344;45.532;9.232;2023-05-07T07:56:54;22.90;99.90
40654;DHT22;26344;45.532;9.232;2023-05-07T07:59:20;23.00;99.90
40654;DHT22;26344;45.532;9.232;2023-05-07T08:01:45;23.00;99.90
40654;DHT22;26344;45.532;9.232;2023-05-07T08:04:13;23.00;99.90
40654;DHT22;26344;45.532;9.232;2023-05-07T08:06:38;23.10;99.90
40654;DHT22;26344;45.532;9.232;2023-05-07T08:09:04;25.10;99.90
40654;DHT22;26344;45.532;9.232;2023-05-07T08:11:29;24.60;99.90
40654;DHT22;26344;45.532;9.232;2023-05-07T08:13:55;24.70;99.90
40654;DHT22;26344;45.532;9.232;2023-05-07T08:16:23;23.40;99.90
40654;DHT22;26344;45.532;9.232;2023-05-07T08:18:49;23.50;99.90
40654;DHT22;26344;45.532;9.232;2023-05-07T08:21:14;22.50;99.90
40654;DHT22;26344;45.532;9.232;2023-05-07T08:23:40;23.90;99.90
40654;DHT22;26344;45.532;9.232;2023-05-07T08:26:05;23.80;99.90
40654;DHT22;26344;45.532;9.232;2023-05-07T08:28:32;23.70;99.90
40654;DHT22;26344;45.532;9.232;2023-05-07T08:30:58;23.70;99.90
40654;DHT22;26344;45.532;9.232;2023-05-07T08:33:25;23.80;99.90
40654;DHT22;26344;45.532;9.232;2023-05-07T08:35:51;23.90;99.90
40654;DHT22;26344;45.532;9.232;2023-05-07T08:38:16;24.00;99.90
40654;DHT22;26344;45.532;9.232;2023-05-07T08:40:42;24.10;99.90
40654;DHT22;26344;45.532;9.232;2023-05-07T08:43:07;24.20;99.90
40654;DHT22;26344;45.532;9.232;2023-05-07T08:45:33;24.30;99.90
40654;DHT22;26344;45.532;9.232;2023-05-07T08:48:00;24.40;99.90
40654;DHT22;26344;45.532;9.232;2023-05-07T08:50:26;24.50;99.90
40654;DHT22;26344;45.532;9.232;2023-05-07T08:52:52;24.60;99.90
40654;DHT22;26344;45.532;9.232;2023-05-07T08:55:17;24.60;99.90
40654;DHT22;26344;45.532;9.232;2023-05-07T08:57:43;24.70;99.90
40654;DHT22;26344;45.532;9.232;2023-05-07T09:00:09;24.80;99.90
40654;DHT22;26344;45.532;9.232;2023-05-07T09:02:35;24.90;99.90
40654;DHT22;26344;45.532;9.232;2023-05-07T09:05:01;24.80;99.90
40654;DHT22;26344;45.532;9.232;2023-05-07T09:07:27;24.80;99.90
40654;DHT22;26344;45.532;9.232;2023-05-07T09:09:52;24.90;99.90
40654;DHT22;26344;45.532;9.232;2023-05-07T09:12:20;25.00;99.90
40654;DHT22;26344;45.532;9.232;2023-05-07T09:14:46;25.10;99.90
40654;DHT22;26344;45.532;9.232;2023-05-07T09:17:12;25.00;99.90
40654;DHT22;26344;45.532;9.232;2023-05-07T09:19:38;25.10;99.90
40654;DHT22;26344;45.532;9.232;2023-05-07T09:22:04;25.20;99.90
40654;DHT22;26344;45.532;9.232;2023-05-07T09:24:32;25.20;99.90
40654;DHT22;26344;45.532;9.232;2023-05-07T09:27:00;25.30;99.90
40654;DHT22;26344;45.532;9.232;2023-05-07T09:29:26;25.50;99.90
40654;DHT22;26344;45.532;9.232;2023-05-07T09:31:54;25.60;99.90
40654;DHT22;26344;45.532;9.232;2023-05-07T09:34:19;25.60;99.90
40654;DHT22;26344;45.532;9.232;2023-05-07T09:36:45;25.60;99.90
40654;DHT22;26344;45.532;9.232;2023-05-07T09:39:10;25.60;99.90
40654;DHT22;26344;45.532;9.232;2023-05-07T09:41:43;25.60;99.90
40654;DHT22;26344;45.532;9.232;2023-05-07T09:44:08;25.60;99.90
40654;DHT22;26344;45.532;9.232;2023-05-07T09:46:34;25.70;99.90
40654;DHT22;26344;45.532;9.232;2023-05-07T09:49:01;25.80;99.90
40654;DHT22;26344;45.532;9.232;2023-05-07T09:51:34;25.70;99.70
40654;DHT22;26344;45.532;9.232;2023-05-07T09:54:03;25.70;99.60
40654;DHT22;26344;45.532;9.232;2023-05-07T09:56:30;25.80;99.50
40654;DHT22;26344;45.532;9.232;2023-05-07T09:58:57;25.70;99.40
40654;DHT22;26344;45.532;9.232;2023-05-07T10:01:24;25.70;99.70
40654;DHT22;26344;45.532;9.232;2023-05-07T10:03:50;25.70;99.80
40654;DHT22;26344;45.532;9.232;2023-05-07T10:06:16;25.80;99.90
40654;DHT22;26344;45.532;9.232;2023-05-07T10:08:42;25.80;99.90
40654;DHT22;26344;45.532;9.232;2023-05-07T10:11:08;25.90;99.90
40654;DHT22;26344;45.532;9.232;2023-05-07T10:13:34;26.10;99.80
40654;DHT22;26344;45.532;9.232;2023-05-07T10:16:03;26.20;99.80
40654;DHT22;26344;45.532;9.232;2023-05-07T10:18:30;26.40;99.90
40654;DHT22;26344;45.532;9.232;2023-05-07T10:21:08;26.40;99.70
40654;DHT22;26344;45.532;9.232;2023-05-07T10:23:33;26.50;99.50
40654;DHT22;26344;45.532;9.232;2023-05-07T10:26:00;26.50;99.70
40654;DHT22;26344;45.532;9.232;2023-05-07T10:28:27;26.50;99.60
40654;DHT22;26344;45.532;9.232;2023-05-07T10:30:59;26.40;99.20
40654;DHT22;26344;45.532;9.232;2023-05-07T10:33:28;26.30;99.30
40654;DHT22;26344;45.532;9.232;2023-05-07T10:35:58;26.40;99.50
40654;DHT22;26344;45.532;9.232;2023-05-07T10:38:24;26.50;99.60
40654;DHT22;26344;45.532;9.232;2023-05-07T10:40:50;26.50;99.40
40654;DHT22;26344;45.532;9.232;2023-05-07T10:43:16;26.50;99.40
40654;DHT22;26344;45.532;9.232;2023-05-07T10:45:41;28.40;99.90
40654;DHT22;26344;45.532;9.232;2023-05-07T10:50:33;26.60;99.50
40654;DHT22;26344;45.532;9.232;2023-05-07T10:55:43;26.80;99.20
40654;DHT22;26344;45.532;9.232;2023-05-07T11:03:13;27.10;98.90
40654;DHT22;26344;45.532;9.232;2023-05-07T11:05:40;27.10;98.60
40654;DHT22;26344;45.532;9.232;2023-05-07T11:08:06;27.10;98.70
40654;DHT22;26344;45.532;9.232;2023-05-07T11:13:16;27.50;98.40
40654;DHT22;26344;45.532;9.232;2023-05-07T11:15:42;27.70;98.20
40654;DHT22;26344;45.532;9.232;2023-05-07T11:18:10;27.70;97.90
40654;DHT22;26344;45.532;9.232;2023-05-07T11:20:45;27.80;97.70
40654;DHT22;26344;45.532;9.232;2023-05-07T11:26:00;27.70;97.40
40654;DHT22;26344;45.532;9.232;2023-05-07T11:28:27;27.60;97.60
40654;DHT22;26344;45.532;9.232;2023-05-07T11:30:53;27.60;97.30
40654;DHT22;26344;45.532;9.232;2023-05-07T11:33:19;27.60;97.30
40654;DHT22;26344;45.532;9.232;2023-05-07T11:35:44;27.70;97.30
40654;DHT22;26344;45.532;9.232;2023-05-07T11:38:10;27.80;97.50
40654;DHT22;26344;45.532;9.232;2023-05-07T11:40:48;27.90;97.30
40654;DHT22;26344;45.532;9.232;2023-05-07T11:43:13;28.10;97.30
40654;DHT22;26344;45.532;9.232;2023-05-07T11:45:39;28.10;97.40
40654;DHT22;26344;45.532;9.232;2023-05-07T11:48:04;28.30;97.20
40654;DHT22;26344;45.532;9.232;2023-05-07T11:50:30;28.40;97.00
40654;DHT22;26344;45.532;9.232;2023-05-07T11:52:56;28.30;96.40
40654;DHT22;26344;45.532;9.232;2023-05-07T11:55:23;28.40;96.70
40654;DHT22;26344;45.532;9.232;2023-05-07T11:57:50;28.50;96.70
40654;DHT22;26344;45.532;9.232;2023-05-07T12:00:15;28.60;96.70
40654;DHT22;26344;45.532;9.232;2023-05-07T12:02:41;28.80;96.20
40654;DHT22;26344;45.532;9.232;2023-05-07T12:05:07;28.90;96.20
40654;DHT22;26344;45.532;9.232;2023-05-07T12:07:35;29.00;96.20
40654;DHT22;26344;45.532;9.232;2023-05-07T12:10:07;29.00;95.90
40654;DHT22;26344;45.532;9.232;2023-05-07T12:12:40;29.20;95.60
40654;DHT22;26344;45.532;9.232;2023-05-07T12:15:07;29.20;95.10
40654;DHT22;26344;45.532;9.232;2023-05-07T12:17:33;29.10;94.90
40654;DHT22;26344;45.532;9.232;2023-05-07T12:19:58;29.00;94.70
40654;DHT22;26344;45.532;9.232;2023-05-07T12:22:25;29.00;94.90
40654;DHT22;26344;45.532;9.232;2023-05-07T12:24:57;28.90;95.10
40654;DHT22;26344;45.532;9.232;2023-05-07T12:27:23;28.90;95.00
40654;DHT22;26344;45.532;9.232;2023-05-07T12:29:49;28.80;95.00
40654;DHT22;26344;45.532;9.232;2023-05-07T12:32:19;28.80;94.40
40654;DHT22;26344;45.532;9.232;2023-05-07T12:34:46;28.80;94.40
40654;DHT22;26344;45.532;9.232;2023-05-07T12:37:12;28.70;94.40
40654;DHT22;26344;45.532;9.232;2023-05-07T12:39:38;28.70;94.00
40654;DHT22;26344;45.532;9.232;2023-05-07T12:42:09;28.60;93.70
40654;DHT22;26344;45.532;9.232;2023-05-07T12:44:39;28.60;93.40
40654;DHT22;26344;45.532;9.232;2023-05-07T12:47:05;28.40;93.40
40654;DHT22;26344;45.532;9.232;2023-05-07T12:49:30;28.40;93.80
40654;DHT22;26344;45.532;9.232;2023-05-07T12:51:56;28.50;93.60
40654;DHT22;26344;45.532;9.232;2023-05-07T12:54:28;28.60;93.10
40654;DHT22;26344;45.532;9.232;2023-05-07T12:57:01;28.80;92.70
40654;DHT22;26344;45.532;9.232;2023-05-07T12:59:30;29.00;92.00
40654;DHT22;26344;45.532;9.232;2023-05-07T13:01:56;29.00;92.10
40654;DHT22;26344;45.532;9.232;2023-05-07T13:04:23;29.20;91.80
40654;DHT22;26344;45.532;9.232;2023-05-07T13:06:49;29.30;91.40
40654;DHT22;26344;45.532;9.232;2023-05-07T13:09:15;29.50;91.30
40654;DHT22;26344;45.532;9.232;2023-05-07T13:11:40;29.60;91.40
40654;DHT22;26344;45.532;9.232;2023-05-07T13:14:06;29.70;90.90
40654;DHT22;26344;45.532;9.232;2023-05-07T13:16:31;29.80;90.80
40654;DHT22;26344;45.532;9.232;2023-05-07T13:18:57;29.90;90.80
40654;DHT22;26344;45.532;9.232;2023-05-07T13:21:23;30.00;90.00
40654;DHT22;26344;45.532;9.232;2023-05-07T13:23:48;30.00;90.00
40654;DHT22;26344;45.532;9.232;2023-05-07T13:26:14;29.90;88.10
40654;DHT22;26344;45.532;9.232;2023-05-07T13:28:39;29.90;88.30
40654;DHT22;26344;45.532;9.232;2023-05-07T13:31:05;29.90;87.80
40654;DHT22;26344;45.532;9.232;2023-05-07T13:33:31;29.60;86.60
40654;DHT22;26344;45.532;9.232;2023-05-07T13:35:57;29.40;86.90
40654;DHT22;26344;45.532;9.232;2023-05-07T13:38:22;29.20;87.50
40654;DHT22;26344;45.532;9.232;2023-05-07T13:40:48;29.40;87.50
40654;DHT22;26344;45.532;9.232;2023-05-07T13:43:13;29.30;87.40
40654;DHT22;26344;45.532;9.232;2023-05-07T13:45:39;29.30;86.80
40654;DHT22;26344;45.532;9.232;2023-05-07T13:48:05;29.30;86.60
40654;DHT22;26344;45.532;9.232;2023-05-07T13:50:30;29.30;86.50
40654;DHT22;26344;45.532;9.232;2023-05-07T13:52:56;29.40;86.60
40654;DHT22;26344;45.532;9.232;2023-05-07T13:55:24;29.40;86.00
40654;DHT22;26344;45.532;9.232;2023-05-07T14:08:11;29.30;86.40
40654;DHT22;26344;45.532;9.232;2023-05-07T14:10:39;29.30;86.10
40654;DHT22;26344;45.532;9.232;2023-05-07T14:13:05;29.30;85.70
40654;DHT22;26344;45.532;9.232;2023-05-07T14:15:30;29.20;85.90
40654;DHT22;26344;45.532;9.232;2023-05-07T14:17:57;29.10;86.50
40654;DHT22;26344;45.532;9.232;2023-05-07T14:20:24;29.20;87.10
40654;DHT22;26344;45.532;9.232;2023-05-07T14:22:50;29.30;87.20
40654;DHT22;26344;45.532;9.232;2023-05-07T14:25:15;29.30;87.20
40654;DHT22;26344;45.532;9.232;2023-05-07T14:27:41;29.20;86.60
40654;DHT22;26344;45.532;9.232;2023-05-07T14:30:07;29.20;86.40
40654;DHT22;26344;45.532;9.232;2023-05-07T14:32:32;29.10;85.90
40654;DHT22;26344;45.532;9.232;2023-05-07T14:34:58;29.10;85.80
40654;DHT22;26344;45.532;9.232;2023-05-07T14:37:24;29.10;86.40
40654;DHT22;26344;45.532;9.232;2023-05-07T14:39:49;29.10;86.50
40654;DHT22;26344;45.532;9.232;2023-05-07T14:42:15;29.10;86.30
40654;DHT22;26344;45.532;9.232;2023-05-07T14:44:40;29.00;86.20
40654;DHT22;26344;45.532;9.232;2023-05-07T14:47:06;29.10;86.60
40654;DHT22;26344;45.532;9.232;2023-05-07T14:49:32;29.00;86.00
40654;DHT22;26344;45.532;9.232;2023-05-07T14:51:58;29.20;85.50
40654;DHT22;26344;45.532;9.232;2023-05-07T14:54:25;29.00;84.20
40654;DHT22;26344;45.532;9.232;2023-05-07T14:56:50;28.90;84.00
40654;DHT22;26344;45.532;9.232;2023-05-07T14:59:16;28.80;84.70
40654;DHT22;26344;45.532;9.232;2023-05-07T15:01:44;28.80;84.20
40654;DHT22;26344;45.532;9.232;2023-05-07T15:04:10;28.80;83.40
40654;DHT22;26344;45.532;9.232;2023-05-07T15:06:36;28.60;83.00
40654;DHT22;26344;45.532;9.232;2023-05-07T15:09:02;28.70;83.20
40654;DHT22;26344;45.532;9.232;2023-05-07T15:11:28;28.60;82.90
40654;DHT22;26344;45.532;9.232;2023-05-07T15:13:53;28.50;82.80
40654;DHT22;26344;45.532;9.232;2023-05-07T15:16:19;28.60;82.90
40654;DHT22;26344;45.532;9.232;2023-05-07T15:18:45;28.60;83.50
40654;DHT22;26344;45.532;9.232;2023-05-07T15:21:11;28.60;83.10
40654;DHT22;26344;45.532;9.232;2023-05-07T15:23:36;28.60;83.30
40654;DHT22;26344;45.532;9.232;2023-05-07T15:26:02;28.60;83.10
40654;DHT22;26344;45.532;9.232;2023-05-07T15:28:27;28.60;83.50
40654;DHT22;26344;45.532;9.232;2023-05-07T15:30:56;28.60;83.70
40654;DHT22;26344;45.532;9.232;2023-05-07T15:33:22;28.70;83.30
40654;DHT22;26344;45.532;9.232;2023-05-07T15:35:48;28.50;83.10
40654;DHT22;26344;45.532;9.232;2023-05-07T15:38:15;28.50;83.20
40654;DHT22;26344;45.532;9.232;2023-05-07T15:40:41;28.40;83.50
40654;DHT22;26344;45.532;9.232;2023-05-07T15:43:07;28.40;83.60
40654;DHT22;26344;45.532;9.232;2023-05-07T15:45:33;28.40;83.50
40654;DHT22;26344;45.532;9.232;2023-05-07T15:48:03;28.30;83.50